createdAt,value
2023-05-20T00:03:25.533Z,100.00
2023-05-20T00:10:30.494Z,100.00
2023-05-20T00:17:58.438Z,100.00
2023-05-20T00:20:30.721Z,100.00
2023-05-20T00:23:02.989Z,100.00
2023-05-20T00:26:16.510Z,100.00
2023-05-20T00:28:51.068Z,100.00
2023-05-20T00:31:29.531Z,100.00
2023-05-20T00:34:04.461Z,100.00
2023-05-20T00:37:28.208Z,100.00
2023-05-20T00:40:00.883Z,100.00
2023-05-20T00:47:04.505Z,100.00
2023-05-20T00:49:37.340Z,100.00
2023-05-20T00:52:17.038Z,100.00
2023-05-20T00:54:51.113Z,100.00
2023-05-20T00:58:26.852Z,100.00
2023-05-20T01:01:07.251Z,100.00
2023-05-20T01:03:39.781Z,100.00
2023-05-20T01:06:11.941Z,100.00
2023-05-20T01:08:44.041Z,100.00
2023-05-20T01:19:46.456Z,100.00
2023-05-20T01:22:35.340Z,100.00
2023-05-20T01:25:08.677Z,100.00
2023-05-20T01:27:49.206Z,100.00
2023-05-20T01:31:25.087Z,100.00
2023-05-20T01:34:05.651Z,100.00
2023-05-20T01:40:28.680Z,100.00
2023-05-20T01:43:02.564Z,100.00
2023-05-20T01:49:29.369Z,100.00
2023-05-20T01:52:01.786Z,100.00
2023-05-20T01:54:41.182Z,100.00
2023-05-20T02:01:46.442Z,100.00
2023-05-20T02:04:25.285Z,100.00
2023-05-20T02:06:57.536Z,100.00
2023-05-20T02:09:36.538Z,100.00
2023-05-20T02:16:41.425Z,100.00
2023-05-20T02:23:37.724Z,100.00
2023-05-20T02:30:04.321Z,100.00
2023-05-20T02:37:09.384Z,100.00
2023-05-20T02:39:49.401Z,100.00
2023-05-20T02:42:21.837Z,100.00
2023-05-20T02:44:56.676Z,100.00
2023-05-20T02:48:31.642Z,100.00
2023-05-20T02:51:10.356Z,100.00
2023-05-20T02:53:42.706Z,100.00
2023-05-20T03:00:43.671Z,100.00
2023-05-20T03:03:17.288Z,100.00
2023-05-20T03:05:50.257Z,100.00
2023-05-20T03:08:39.743Z,100.00
2023-05-20T03:11:55.727Z,100.00
2023-05-20T03:27:58.833Z,100.00
2023-05-20T03:43:12.555Z,100.00
2023-05-20T03:46:42.419Z,100.00
2023-05-20T03:49:14.797Z,100.00
2023-05-20T03:51:47.039Z,100.00
2023-05-20T03:54:28.471Z,100.00
2023-05-20T04:01:27.374Z,100.00
2023-05-20T04:03:59.711Z,100.00
2023-05-20T04:24:25.320Z,100.00
2023-05-20T04:27:34.885Z,100.00
2023-05-20T04:33:39.443Z,100.00
2023-05-20T04:39:54.678Z,100.00
2023-05-20T04:42:33.822Z,100.00
2023-05-20T04:45:08.897Z,100.00
2023-05-20T04:48:26.771Z,100.00
2023-05-20T04:51:01.469Z,100.00
2023-05-20T04:53:36.228Z,100.00
2023-05-20T04:56:15.731Z,100.00
2023-05-20T04:58:48.706Z,100.00
2023-05-20T05:01:21.165Z,100.00
2023-05-20T05:03:54.476Z,100.00
2023-05-20T05:06:26.605Z,100.00
2023-05-20T05:08:58.826Z,100.00
2023-05-20T05:11:39.220Z,100.00
2023-05-20T05:14:17.844Z,100.00
2023-05-20T05:16:57.438Z,100.00
2023-05-20T05:19:29.788Z,100.00
2023-05-20T05:22:08.517Z,100.00
2023-05-20T05:25:14.812Z,100.00
2023-05-20T05:27:49.301Z,100.00
2023-05-20T05:30:41.673Z,100.00
2023-05-20T05:37:28.335Z,100.00
2023-05-20T05:40:00.579Z,100.00
2023-05-20T05:42:33.615Z,100.00
2023-05-20T05:45:38.641Z,100.00
2023-05-20T05:48:11.627Z,100.00
2023-05-20T05:50:47.201Z,100.00
2023-05-20T05:57:56.982Z,100.00
2023-05-20T06:00:29.400Z,100.00
2023-05-20T06:07:03.599Z,100.00
2023-05-20T06:09:36.527Z,100.00
2023-05-20T06:12:10.537Z,100.00
2023-05-20T06:15:08.147Z,100.00
2023-05-20T06:17:51.790Z,100.00
2023-05-20T06:23:57.598Z,100.00
2023-05-20T06:30:06.170Z,100.00
2023-05-20T06:33:11.722Z,100.00
2023-05-20T06:35:44.308Z,100.00
2023-05-20T06:42:37.554Z,100.00
2023-05-20T06:48:44.698Z,100.00
2023-05-20T06:57:45.018Z,100.00
2023-05-20T07:00:18.704Z,100.00
2023-05-20T07:02:50.919Z,100.00
2023-05-20T07:08:55.644Z,100.00
2023-05-20T07:11:28.102Z,100.00
2023-05-20T07:14:06.676Z,100.00
2023-05-20T07:17:12.396Z,100.00
2023-05-20T07:19:50.549Z,100.00
2023-05-20T07:22:23.096Z,100.00
2023-05-20T07:25:44.931Z,100.00
2023-05-20T07:33:55.724Z,100.00
2023-05-20T07:36:34.975Z,100.00
2023-05-20T07:39:33.824Z,100.00
2023-05-20T07:42:06.393Z,100.00
2023-05-20T07:44:39.075Z,100.00
2023-05-20T07:50:51.731Z,100.00
2023-05-20T07:53:25.167Z,100.00
2023-05-20T07:55:57.821Z,100.00
2023-05-20T08:03:14.596Z,100.00
2023-05-20T08:06:21.618Z,100.00
2023-05-20T08:08:54.554Z,100.00
2023-05-20T08:11:30.964Z,100.00
2023-05-20T08:14:03.604Z,100.00
2023-05-20T08:16:49.035Z,100.00
2023-05-20T08:19:21.999Z,100.00
2023-05-20T08:25:41.067Z,99.92
2023-05-20T08:28:13.526Z,100.00
2023-05-20T08:35:24.615Z,100.00
2023-05-20T08:38:43.686Z,100.00
2023-05-20T08:46:03.664Z,99.29
2023-05-20T08:49:20.838Z,98.00
2023-05-20T08:51:53.093Z,98.82
2023-05-20T08:58:43.167Z,97.08
2023-05-20T09:05:46.864Z,96.46
2023-05-20T09:12:39.674Z,97.54
2023-05-20T09:15:13.045Z,97.21
2023-05-20T09:17:51.187Z,96.44
2023-05-20T09:20:49.728Z,96.61
2023-05-20T09:27:31.002Z,96.70
2023-05-20T09:30:25.995Z,95.86
2023-05-20T09:33:07.946Z,96.03
2023-05-20T09:44:01.022Z,94.00
2023-05-20T09:47:11.200Z,94.35
2023-05-20T09:49:45.011Z,95.24
2023-05-20T09:52:20.771Z,95.54
2023-05-20T09:55:41.412Z,94.62
2023-05-20T09:59:02.383Z,94.49
2023-05-20T10:06:26.991Z,94.11
2023-05-20T10:20:51.602Z,92.27
2023-05-20T10:32:32.561Z,91.09
2023-05-20T10:35:17.039Z,90.95
2023-05-20T10:38:17.700Z,91.14
2023-05-20T10:45:13.350Z,87.93
2023-05-20T10:52:10.311Z,89.53
2023-05-20T10:55:43.397Z,88.48
2023-05-20T10:59:10.142Z,89.19
2023-05-20T11:02:07.879Z,88.22
2023-05-20T11:04:48.277Z,87.96
2023-05-20T11:12:39.300Z,86.16
2023-05-20T11:15:18.599Z,85.68
2023-05-20T11:18:24.322Z,86.20
2023-05-20T11:20:56.809Z,87.32
2023-05-20T11:23:31.979Z,86.79
2023-05-20T11:26:50.889Z,86.19
2023-05-20T11:29:30.542Z,85.16
2023-05-20T11:32:04.367Z,84.65
2023-05-20T11:34:54.650Z,81.75
2023-05-20T11:37:41.883Z,82.74
2023-05-20T11:43:48.067Z,85.00
2023-05-20T11:51:31.500Z,85.18
2023-05-20T11:54:04.816Z,83.45
2023-05-20T11:56:38.722Z,84.47
2023-05-20T11:59:11.405Z,84.94
2023-05-20T12:02:15.964Z,84.10
2023-05-20T12:04:48.959Z,83.14
2023-05-20T12:07:21.546Z,83.91
2023-05-20T12:13:27.352Z,83.26
2023-05-20T12:15:59.571Z,82.52
2023-05-20T12:19:09.529Z,82.81
2023-05-20T12:24:55.469Z,79.06
2023-05-20T12:27:28.275Z,80.52
2023-05-20T12:31:02.678Z,78.54
2023-05-20T12:33:34.976Z,79.66
2023-05-20T12:36:17.029Z,79.51
2023-05-20T12:42:18.080Z,78.14
2023-05-20T12:44:57.001Z,78.88
2023-05-20T12:47:30.691Z,79.90
2023-05-20T12:50:38.369Z,78.95
2023-05-20T12:53:10.547Z,79.65
2023-05-20T12:55:48.928Z,78.44
2023-05-20T12:58:21.210Z,77.86
2023-05-20T13:01:00.337Z,78.89
2023-05-20T13:03:32.666Z,78.29
2023-05-20T13:06:10.917Z,77.36
2023-05-20T13:08:43.369Z,78.17
2023-05-20T13:12:10.588Z,78.08
2023-05-20T13:14:42.836Z,78.01
2023-05-20T13:17:27.272Z,77.34
2023-05-20T13:19:59.614Z,77.37
2023-05-20T13:27:05.571Z,74.73
2023-05-20T13:29:44.037Z,75.19
2023-05-20T13:32:16.757Z,74.69
2023-05-20T13:39:54.862Z,75.65
2023-05-20T13:42:29.378Z,71.93
2023-05-20T13:45:47.056Z,72.56
2023-05-20T13:48:49.015Z,72.84
2023-05-20T13:51:21.184Z,70.54
2023-05-20T13:53:53.364Z,71.32
2023-05-20T13:56:38.982Z,70.32
2023-05-20T13:59:11.601Z,71.54
2023-05-20T14:01:45.575Z,70.38
2023-05-20T14:05:04.704Z,71.14
2023-05-20T14:07:36.954Z,71.00
2023-05-20T14:13:34.655Z,69.98
2023-05-20T14:19:40.342Z,71.03
2023-05-20T14:25:27.910Z,68.95
2023-05-20T14:28:00.071Z,69.41
2023-05-20T14:35:26.979Z,69.10
2023-05-20T14:38:30.052Z,68.02
2023-05-20T14:41:11.107Z,67.41
2023-05-20T14:43:43.281Z,66.25
2023-05-20T14:50:48.335Z,66.64
2023-05-20T14:58:16.498Z,65.56
2023-05-20T15:00:48.814Z,65.96
2023-05-20T15:03:21.420Z,66.19
2023-05-20T15:05:53.783Z,67.08
2023-05-20T15:12:58.606Z,66.79
2023-05-20T15:15:37.864Z,66.80
2023-05-20T15:22:31.570Z,66.56
2023-05-20T15:25:03.852Z,66.94
2023-05-20T15:36:02.265Z,66.32
2023-05-20T15:38:34.635Z,66.07
2023-05-20T15:41:08.111Z,65.77
2023-05-20T15:43:40.805Z,66.51
2023-05-20T15:50:17.036Z,66.49
2023-05-20T15:52:49.270Z,66.73
2023-05-20T15:55:23.487Z,67.17
2023-05-20T16:02:58.471Z,67.38
2023-05-20T16:05:33.559Z,67.65
2023-05-20T16:08:12.680Z,67.34
2023-05-20T16:10:44.917Z,67.44
2023-05-20T16:13:23.834Z,67.67
2023-05-20T16:15:59.099Z,67.65
2023-05-20T16:18:31.327Z,67.80
2023-05-20T16:25:04.223Z,68.18
2023-05-20T16:27:36.573Z,68.37
2023-05-20T16:30:16.139Z,68.60
2023-05-20T16:32:48.465Z,69.01
2023-05-20T16:40:00.756Z,69.54
2023-05-20T16:43:25.768Z,69.61
2023-05-20T16:46:04.727Z,69.70
2023-05-20T16:48:37.160Z,69.69
2023-05-20T16:51:58.755Z,69.70
2023-05-20T16:54:31.180Z,69.83
2023-05-20T16:57:05.096Z,69.95
2023-05-20T16:59:41.094Z,70.18
2023-05-20T17:02:34.834Z,70.33
2023-05-20T17:05:08.284Z,70.58
2023-05-20T17:07:49.023Z,70.69
2023-05-20T17:11:06.817Z,71.13
2023-05-20T17:13:45.758Z,71.41
2023-05-20T17:16:18.844Z,71.82
2023-05-20T17:18:58.706Z,71.77
2023-05-20T17:26:05.032Z,72.50
2023-05-20T17:28:43.736Z,72.87
2023-05-20T17:31:15.911Z,72.84
2023-05-20T17:33:55.227Z,73.21
2023-05-20T17:36:32.801Z,73.45
2023-05-20T17:43:03.808Z,73.94
2023-05-20T17:45:38.380Z,74.32
2023-05-20T17:48:11.721Z,74.43
2023-05-20T17:50:50.783Z,74.56
2023-05-20T17:53:22.928Z,74.77
2023-05-20T17:56:02.167Z,74.94
2023-05-20T17:58:36.702Z,75.31
2023-05-20T18:01:16.482Z,75.64
2023-05-20T18:03:49.022Z,75.90
2023-05-20T18:13:59.844Z,77.10
2023-05-20T18:16:49.656Z,77.37
2023-05-20T18:31:20.421Z,79.29
2023-05-20T18:34:43.651Z,79.49
2023-05-20T18:37:23.104Z,79.74
2023-05-20T18:43:07.978Z,80.62
2023-05-20T18:45:42.206Z,80.96
2023-05-20T18:48:26.543Z,81.22
2023-05-20T18:50:59.737Z,81.92
2023-05-20T18:53:32.133Z,82.07
2023-05-20T18:56:07.669Z,82.27
2023-05-20T18:58:40.735Z,82.65
2023-05-20T19:01:15.570Z,82.56
2023-05-20T19:03:50.121Z,82.81
2023-05-20T19:06:23.611Z,82.98
2023-05-20T19:08:55.788Z,83.06
2023-05-20T19:11:27.991Z,83.05
2023-05-20T19:14:00.424Z,83.24
2023-05-20T19:16:32.992Z,83.32
2023-05-20T19:19:06.045Z,83.29
2023-05-20T19:21:41.569Z,83.44
2023-05-20T19:24:13.967Z,83.07
2023-05-20T19:26:47.363Z,82.65
2023-05-20T19:29:21.308Z,82.11
2023-05-20T19:31:53.875Z,81.60
2023-05-20T19:34:26.709Z,81.48
2023-05-20T19:37:00.539Z,81.36
2023-05-20T19:39:32.898Z,81.44
2023-05-20T19:42:05.394Z,81.54
2023-05-20T19:44:37.579Z,81.67
2023-05-20T19:47:09.884Z,81.59
2023-05-20T19:49:42.132Z,81.45
2023-05-20T19:52:14.597Z,81.45
2023-05-20T19:54:46.690Z,81.18
2023-05-20T19:57:19.137Z,81.34
2023-05-20T19:59:53.549Z,81.27
2023-05-20T20:02:25.879Z,81.40
2023-05-20T20:04:59.312Z,81.43
2023-05-20T20:07:32.163Z,81.40
2023-05-20T20:10:04.846Z,81.15
2023-05-20T20:12:37.020Z,81.37
2023-05-20T20:18:43.527Z,81.48
2023-05-20T20:21:16.017Z,81.62
2023-05-20T20:23:52.151Z,81.75
2023-05-20T20:26:31.327Z,81.92
2023-05-20T20:29:44.884Z,81.99
2023-05-20T20:32:53.931Z,82.16
2023-05-20T20:35:26.508Z,82.37
2023-05-20T20:37:58.924Z,82.35
2023-05-20T20:48:34.586Z,82.92
2023-05-20T20:51:07.083Z,83.20
2023-05-20T20:53:41.208Z,83.27
2023-05-20T20:56:13.577Z,83.37
2023-05-20T20:58:46.368Z,83.56
2023-05-20T21:01:18.651Z,83.65
2023-05-20T21:03:56.390Z,83.88
2023-05-20T21:06:28.929Z,84.22
2023-05-20T21:09:02.358Z,84.40
2023-05-20T21:11:36.619Z,84.55
2023-05-20T21:14:09.225Z,84.72
2023-05-20T21:16:42.236Z,84.76
2023-05-20T21:19:43.702Z,84.72
2023-05-20T21:22:18.661Z,85.03
2023-05-20T21:24:52.268Z,85.12
2023-05-20T21:31:01.722Z,86.07
2023-05-20T21:37:33.523Z,86.43
2023-05-20T21:44:27.537Z,86.90
2023-05-20T21:48:21.894Z,87.13
2023-05-20T21:50:56.789Z,87.36
2023-05-20T21:53:29.009Z,87.33
2023-05-20T22:03:08.599Z,87.91
2023-05-20T22:09:26.803Z,88.15
2023-05-20T22:11:59.890Z,88.38
2023-05-20T22:18:54.832Z,88.90
2023-05-20T22:22:20.788Z,88.77
2023-05-20T22:32:58.472Z,89.12
2023-05-20T22:35:46.353Z,89.30
2023-05-20T22:38:19.045Z,89.34
2023-05-20T22:40:51.325Z,89.30
2023-05-20T22:46:43.998Z,89.70
2023-05-20T22:50:02.754Z,90.01
2023-05-20T22:57:00.424Z,90.31
2023-05-20T23:03:18.104Z,90.43
2023-05-20T23:06:01.557Z,90.51
2023-05-20T23:12:08.508Z,91.05
2023-05-20T23:14:40.662Z,91.29
2023-05-20T23:17:12.818Z,91.25
2023-05-20T23:19:45.082Z,91.36
2023-05-20T23:22:57.001Z,91.66
2023-05-20T23:25:29.097Z,91.82
2023-05-20T23:28:01.352Z,92.09
2023-05-20T23:30:40.206Z,92.33
2023-05-20T23:33:13.199Z,92.53
2023-05-20T23:35:45.819Z,92.66
2023-05-20T23:38:18.270Z,93.08
2023-05-20T23:44:25.496Z,93.61
2023-05-20T23:46:57.736Z,93.60
2023-05-20T23:49:29.978Z,93.82
2023-05-20T23:56:35.201Z,94.51
2023-05-20T23:59:07.500Z,94.53
